createdAt,value
2022-10-18T00:00:00.994Z,15.95
2022-10-18T00:03:10.699Z,15.93
2022-10-18T00:12:50.856Z,15.76
2022-10-18T00:16:11.720Z,15.71
2022-10-18T00:19:36.078Z,15.69
2022-10-18T00:22:19.845Z,15.67
2022-10-18T00:25:06.281Z,15.65
2022-10-18T00:28:09.311Z,15.64
2022-10-18T00:31:00.093Z,15.65
2022-10-18T00:34:10.275Z,15.65
2022-10-18T00:36:44.290Z,15.66
2022-10-18T00:39:24.353Z,15.64
2022-10-18T00:42:05.349Z,15.66
2022-10-18T00:44:49.993Z,15.66
2022-10-18T00:47:46.434Z,15.69
2022-10-18T00:50:36.966Z,15.67
2022-10-18T00:53:26.406Z,15.64
2022-10-18T00:56:01.078Z,15.63
2022-10-18T00:59:09.145Z,15.62
2022-10-18T01:01:42.452Z,15.60
2022-10-18T01:04:24.258Z,15.59
2022-10-18T01:07:12.136Z,15.60
2022-10-18T01:09:53.495Z,15.59
2022-10-18T01:12:51.968Z,15.57
2022-10-18T01:15:44.005Z,15.53
2022-10-18T01:19:03.674Z,15.50
2022-10-18T01:21:49.915Z,15.48
2022-10-18T01:24:41.302Z,15.45
2022-10-18T01:27:24.106Z,15.41
2022-10-18T01:30:28.967Z,15.38
2022-10-18T01:33:15.457Z,15.34
2022-10-18T01:36:40.872Z,15.32
2022-10-18T01:39:45.136Z,15.30
2022-10-18T01:42:22.215Z,15.28
2022-10-18T01:44:53.114Z,15.24
2022-10-18T01:47:34.249Z,15.22
2022-10-18T01:50:10.992Z,15.19
2022-10-18T01:53:05.312Z,15.13
2022-10-18T01:56:03.528Z,15.08
2022-10-18T01:59:11.566Z,15.03
2022-10-18T02:02:23.390Z,14.99
2022-10-18T02:05:15.132Z,14.92
2022-10-18T02:08:24.085Z,14.88
2022-10-18T02:11:21.546Z,14.84
2022-10-18T02:14:05.234Z,14.83
2022-10-18T02:16:54.205Z,14.80
2022-10-18T02:19:48.408Z,14.75
2022-10-18T02:22:56.859Z,14.72
2022-10-18T02:25:36.241Z,14.71
2022-10-18T02:28:11.518Z,14.70
2022-10-18T02:30:57.725Z,14.68
2022-10-18T02:33:47.388Z,14.65
2022-10-18T02:36:57.061Z,14.61
2022-10-18T02:39:46.485Z,14.55
2022-10-18T02:42:19.361Z,14.50
2022-10-18T02:45:09.942Z,14.44
2022-10-18T02:47:52.023Z,14.36
2022-10-18T02:50:31.599Z,14.30
2022-10-18T02:53:22.804Z,14.23
2022-10-18T02:56:25.491Z,14.17
2022-10-18T02:58:55.921Z,14.14
2022-10-18T03:01:32.418Z,14.11
2022-10-18T03:04:11.698Z,14.11
2022-10-18T03:06:57.612Z,14.10
2022-10-18T03:09:46.464Z,14.09
2022-10-18T03:12:16.600Z,14.11
2022-10-18T03:15:28.599Z,14.15
2022-10-18T03:18:17.229Z,14.21
2022-10-18T03:20:57.076Z,14.29
2022-10-18T03:23:27.237Z,14.41
2022-10-18T03:26:13.386Z,14.56
2022-10-18T03:28:57.440Z,14.70
2022-10-18T03:34:29.093Z,14.92
2022-10-18T03:37:05.635Z,14.99
2022-10-18T03:39:41.687Z,15.04
2022-10-18T03:42:25.899Z,15.10
2022-10-18T03:44:55.636Z,15.17
2022-10-18T03:47:52.380Z,15.22
2022-10-18T03:50:55.165Z,15.25
2022-10-18T03:54:03.158Z,15.28
2022-10-18T03:56:57.268Z,15.30
2022-10-18T03:59:46.684Z,15.32
2022-10-18T04:35:15.617Z,14.99
2022-10-18T05:07:34.156Z,14.47
2022-10-18T05:55:33.085Z,15.08
2022-10-18T05:58:05.015Z,15.09
2022-10-18T06:00:54.206Z,15.10
2022-10-18T06:03:35.683Z,15.12
2022-10-18T06:06:39.427Z,15.15
2022-10-18T06:09:10.057Z,15.15
2022-10-18T06:11:40.468Z,15.16
2022-10-18T06:14:16.557Z,15.17
2022-10-18T06:16:53.908Z,15.18
2022-10-18T06:19:29.069Z,15.19
2022-10-18T06:21:56.114Z,15.20
2022-10-18T06:24:23.299Z,15.22
2022-10-18T06:28:48.757Z,15.23
2022-10-18T06:31:26.884Z,15.25
2022-10-18T06:38:12.345Z,15.28
2022-10-18T06:44:27.217Z,15.27
2022-10-18T06:47:11.073Z,15.26
2022-10-18T06:50:11.555Z,15.25
2022-10-18T06:56:20.085Z,15.27
2022-10-18T07:07:05.555Z,15.32
2022-10-18T07:10:27.098Z,15.35
2022-10-18T07:12:35.571Z,15.37
2022-10-18T07:15:47.928Z,15.41
2022-10-18T07:19:36.523Z,15.50
2022-10-18T07:22:47.492Z,15.58
2022-10-18T07:25:34.840Z,15.59
2022-10-18T07:32:05.320Z,15.67
2022-10-18T07:34:53.650Z,15.64
2022-10-18T07:37:42.697Z,15.53
2022-10-18T07:40:28.112Z,15.47
2022-10-18T07:46:36.263Z,15.36
2022-10-18T07:49:20.374Z,15.32
2022-10-18T07:52:10.485Z,15.34
2022-10-18T07:58:38.253Z,15.36
2022-10-18T08:01:33.931Z,15.40
2022-10-18T08:05:15.192Z,15.42
2022-10-18T08:11:34.893Z,15.44
2022-10-18T08:17:50.550Z,15.43
2022-10-18T08:21:23.299Z,15.45
2022-10-18T08:25:06.331Z,15.45
2022-10-18T08:28:05.709Z,15.40
2022-10-18T08:32:00.080Z,15.32
2022-10-18T08:35:11.648Z,15.28
2022-10-18T08:38:25.329Z,15.28
2022-10-18T08:41:39.981Z,15.30
2022-10-18T08:45:41.002Z,15.28
2022-10-18T08:50:08.197Z,15.29
2022-10-18T08:53:52.688Z,15.30
2022-10-18T08:57:11.183Z,15.31
2022-10-18T09:00:45.327Z,15.29
2022-10-18T09:04:04.959Z,15.30
2022-10-18T09:07:01.839Z,15.32
2022-10-18T09:11:49.661Z,15.32
2022-10-18T09:14:09.115Z,15.32
2022-10-18T09:18:52.970Z,15.32
2022-10-18T09:33:51.619Z,15.24
2022-10-18T09:43:21.596Z,15.19
2022-10-18T09:45:00.529Z,15.15
2022-10-18T09:48:15.159Z,15.15
2022-10-18T09:51:46.105Z,15.07
2022-10-18T10:03:09.209Z,14.93
2022-10-18T10:06:47.922Z,14.90
2022-10-18T10:13:39.998Z,14.85
2022-10-18T10:17:05.196Z,14.82
2022-10-18T10:20:29.958Z,14.73
2022-10-18T10:23:35.009Z,14.66
2022-10-18T10:26:56.162Z,14.63
2022-10-18T10:39:07.546Z,14.47
2022-10-18T10:47:23.742Z,14.34
2022-10-18T13:16:34.686Z,13.46
2022-10-18T13:20:29.727Z,13.53
2022-10-18T13:23:58.900Z,13.56
2022-10-18T13:27:42.395Z,13.56
2022-10-18T13:30:28.305Z,13.55
2022-10-18T13:33:36.205Z,13.56
2022-10-18T13:36:23.482Z,13.55
2022-10-18T13:38:55.262Z,13.54
2022-10-18T13:41:44.052Z,13.56
2022-10-18T13:44:39.719Z,13.60
2022-10-18T13:47:06.838Z,13.62
2022-10-18T13:49:39.694Z,13.64
2022-10-18T14:34:43.709Z,13.70
2022-10-18T14:37:43.819Z,13.67
2022-10-18T14:50:53.841Z,13.50
2022-10-18T14:53:24.803Z,13.47
2022-10-18T14:55:57.507Z,13.47
2022-10-18T14:58:24.823Z,13.46
2022-10-18T15:00:52.281Z,13.48
2022-10-18T15:03:22.467Z,13.48
2022-10-18T15:05:57.264Z,13.50
2022-10-18T15:08:29.616Z,13.50
2022-10-18T15:11:03.914Z,13.48
2022-10-18T15:13:36.312Z,13.50
2022-10-18T15:16:03.832Z,13.52
2022-10-18T15:21:21.206Z,13.51
2022-10-18T15:24:42.309Z,13.47
2022-10-18T15:26:58.434Z,13.45
2022-10-18T15:29:27.554Z,13.44
2022-10-18T15:31:54.724Z,13.44
2022-10-18T15:34:26.699Z,13.42
2022-10-18T15:41:19.387Z,13.42
2022-10-18T15:47:12.827Z,13.45
2022-10-18T15:49:53.161Z,13.43
2022-10-18T15:52:47.592Z,13.44
2022-10-18T15:56:22.075Z,13.46
2022-10-18T15:58:46.949Z,13.46
2022-10-18T16:01:27.641Z,13.47
2022-10-18T16:04:43.572Z,13.50
2022-10-18T16:07:49.400Z,13.49
2022-10-18T16:10:24.470Z,13.43
2022-10-18T16:15:25.327Z,13.43
2022-10-18T16:17:57.152Z,13.44
2022-10-18T16:20:24.922Z,13.43
2022-10-18T16:23:00.646Z,13.42
2022-10-18T16:25:27.853Z,13.42
2022-10-18T16:27:57.405Z,13.41
2022-10-18T16:30:28.002Z,13.39
2022-10-18T16:32:55.960Z,13.38
2022-10-18T16:35:24.804Z,13.38
2022-10-18T16:37:54.663Z,13.37
2022-10-18T16:40:25.830Z,13.35
2022-10-18T16:42:53.122Z,13.34
2022-10-18T16:45:21.734Z,13.34
2022-10-18T16:47:49.598Z,13.33
2022-10-18T16:50:21.446Z,13.34
2022-10-18T16:52:52.523Z,13.35
2022-10-18T16:55:25.159Z,13.33
2022-10-18T16:57:52.951Z,13.31
2022-10-18T17:00:22.989Z,13.31
2022-10-18T17:02:52.864Z,13.31
2022-10-18T17:05:20.201Z,13.29
2022-10-18T17:07:49.913Z,13.29
2022-10-18T17:10:23.062Z,13.30
2022-10-18T17:12:51.415Z,13.31
2022-10-18T17:15:20.105Z,13.33
2022-10-18T17:17:56.163Z,13.34
2022-10-18T17:20:27.839Z,13.37
2022-10-18T17:22:55.028Z,13.37
2022-10-18T17:25:22.265Z,13.37
2022-10-18T17:27:53.682Z,13.39
2022-10-18T17:30:20.920Z,13.40
2022-10-18T17:32:51.177Z,13.41
2022-10-18T17:35:18.277Z,13.40
2022-10-18T17:37:53.078Z,13.41
2022-10-18T17:40:23.922Z,13.41
2022-10-18T17:42:52.048Z,13.41
2022-10-18T17:45:21.137Z,13.41
2022-10-18T17:47:48.936Z,13.41
2022-10-18T17:50:18.604Z,13.40
2022-10-18T17:52:52.336Z,13.39
2022-10-18T17:55:19.503Z,13.39
2022-10-18T17:57:47.767Z,13.38
2022-10-18T18:00:20.370Z,13.36
2022-10-18T18:02:47.837Z,13.36
2022-10-18T18:05:15.121Z,13.35
2022-10-18T18:07:42.134Z,13.35
2022-10-18T18:10:09.477Z,13.34
2022-10-18T18:12:36.487Z,13.32
2022-10-18T18:15:07.083Z,13.27
2022-10-18T18:17:52.605Z,13.26
2022-10-18T18:20:21.810Z,13.25
2022-10-18T18:22:49.930Z,13.20
2022-10-18T18:25:19.530Z,13.14
2022-10-18T18:27:46.480Z,13.12
2022-10-18T18:30:15.003Z,13.11
2022-10-18T18:32:42.227Z,13.13
2022-10-18T18:35:09.946Z,13.13
2022-10-18T18:37:40.033Z,13.10
2022-10-18T18:40:10.307Z,13.08
2022-10-18T18:42:37.336Z,13.06
2022-10-18T18:45:04.871Z,13.05
2022-10-18T18:47:35.197Z,13.04
2022-10-18T18:50:07.582Z,13.02
2022-10-18T18:52:34.795Z,13.01
2022-10-18T18:55:04.800Z,12.99
2022-10-18T18:57:31.953Z,12.95
2022-10-18T19:00:02.175Z,12.95
2022-10-18T19:02:29.518Z,12.95
2022-10-18T19:04:56.428Z,12.93
2022-10-18T19:07:23.607Z,12.92
2022-10-18T19:09:52.092Z,12.88
2022-10-18T19:12:21.436Z,12.84
2022-10-18T19:14:51.728Z,12.83
2022-10-18T19:17:18.808Z,12.84
2022-10-18T19:19:48.201Z,12.83
2022-10-18T19:22:15.337Z,12.80
2022-10-18T19:24:45.474Z,12.79
2022-10-18T19:27:12.789Z,12.77
2022-10-18T19:32:23.485Z,12.74
2022-10-18T19:34:50.379Z,12.72
2022-10-18T19:37:17.990Z,12.67
2022-10-18T19:39:45.650Z,12.63
2022-10-18T19:42:17.418Z,12.60
2022-10-18T19:44:53.956Z,12.61
2022-10-18T19:47:21.736Z,12.61
2022-10-18T19:49:51.405Z,12.63
2022-10-18T19:52:21.221Z,12.65
2022-10-18T19:54:49.003Z,12.66
2022-10-18T19:57:18.511Z,12.66
2022-10-18T19:59:48.056Z,12.68
2022-10-18T20:02:16.199Z,12.69
2022-10-18T20:04:43.134Z,12.70
2022-10-18T20:07:13.984Z,12.69
2022-10-18T20:09:41.325Z,12.62
2022-10-18T20:12:11.298Z,12.57
2022-10-18T20:14:38.508Z,12.52
2022-10-18T20:17:05.900Z,12.47
2022-10-18T20:19:33.447Z,12.43
2022-10-18T20:22:00.570Z,12.38
2022-10-18T20:24:30.657Z,12.36
2022-10-18T20:26:57.741Z,12.32
2022-10-18T20:29:25.092Z,12.29
2022-10-18T20:31:55.219Z,12.24
2022-10-18T20:34:25.512Z,12.18
2022-10-18T20:36:55.870Z,12.09
2022-10-18T20:39:23.815Z,12.02
2022-10-18T20:41:51.199Z,11.99
2022-10-18T20:44:22.227Z,11.96
2022-10-18T20:46:56.868Z,11.92
2022-10-18T20:49:29.580Z,11.88
2022-10-18T20:51:59.542Z,11.85
2022-10-18T20:54:32.807Z,11.80
2022-10-18T20:57:00.495Z,11.75
2022-10-18T20:59:28.980Z,11.71
2022-10-18T21:01:57.257Z,11.66
2022-10-18T21:04:24.533Z,11.63
2022-10-18T21:06:54.708Z,11.60
2022-10-18T21:09:25.251Z,11.59
2022-10-18T21:12:00.638Z,11.58
2022-10-18T21:15:39.249Z,11.56
2022-10-18T21:18:49.430Z,11.55
2022-10-18T21:25:07.315Z,11.55
2022-10-18T22:06:19.122Z,11.55
2022-10-18T22:08:58.058Z,11.46
2022-10-18T22:11:40.125Z,11.44
2022-10-18T22:14:09.877Z,11.42
2022-10-18T22:16:58.255Z,11.38
2022-10-18T22:19:28.107Z,11.34
2022-10-18T22:21:57.474Z,11.30
2022-10-18T22:24:43.651Z,11.26
2022-10-18T22:27:23.368Z,11.22
2022-10-18T22:29:56.441Z,11.18
2022-10-18T22:32:27.404Z,11.16
2022-10-18T22:35:02.247Z,11.14
2022-10-18T22:37:37.949Z,11.13
2022-10-18T22:40:16.266Z,11.12
2022-10-18T22:42:48.277Z,11.11
2022-10-18T22:45:23.784Z,11.09
2022-10-18T22:48:02.237Z,11.08
2022-10-18T22:50:33.858Z,11.06
2022-10-18T22:53:08.366Z,11.07
2022-10-18T22:55:37.787Z,11.07
2022-10-18T22:58:06.394Z,11.07
2022-10-18T23:00:40.529Z,11.08
2022-10-18T23:03:18.669Z,11.07
2022-10-18T23:05:47.590Z,11.06
2022-10-18T23:08:36.326Z,11.06
2022-10-18T23:11:14.214Z,11.05
2022-10-18T23:13:51.446Z,11.04
2022-10-18T23:16:28.020Z,11.03
2022-10-18T23:18:59.848Z,11.01
2022-10-18T23:21:38.270Z,11.00
2022-10-18T23:24:25.008Z,11.01
2022-10-18T23:27:06.961Z,11.03
2022-10-18T23:29:35.435Z,11.02
2022-10-18T23:32:14.059Z,11.00
2022-10-18T23:34:54.918Z,10.98
2022-10-18T23:37:30.214Z,10.98
2022-10-18T23:40:02.144Z,10.96
2022-10-18T23:42:37.732Z,10.91
2022-10-18T23:45:14.669Z,10.87
2022-10-18T23:47:53.371Z,10.85
2022-10-18T23:50:26.345Z,10.82
2022-10-18T23:53:03.059Z,10.78
2022-10-18T23:55:37.567Z,10.78
2022-10-18T23:58:10.539Z,10.77
